Time;durP1;ratioP1;P1;durP2;ratioP2;P2;SDS_P1;SDS_P2;PMS_P1;PMS_P2;Temp;Humidity;BMP_temperature;BMP_pressure;BME280_temperature;BME280_humidity;BME280_pressure;Samples;Min_cycle;Max_cycle;Signal;HPM_P1;HPM_P2
2022/05/26 00:02:27;;;;;;;0.67;0.30;;;20.10;97.30;;;;;;20883150;28;20631;-69
2022/05/26 00:12:30;;;;;;;0.83;0.20;;;;;;;;;;20885211;28;20651;-69
2022/05/26 00:22:31;;;;;;;0.30;0.20;;;;;;;;;;20811509;28;20218;-69
2022/05/26 00:32:34;;;;;;;0.67;0.30;;;;;;;;;;20826802;28;20241;-69
2022/05/26 00:42:36;;;;;;;0.50;0.30;;;;;;;;;;20881700;28;20221;-69
2022/05/26 00:52:43;;;;;;;0.30;0.30;;;19.90;99.90;;;;;;20799401;28;20278;-69
2022/05/26 01:03:01;;;;;;;0.33;0.20;;;19.90;99.90;;;;;;20798404;28;20269;-69
2022/05/26 01:13:03;;;;;;;0.47;0.20;;;;;;;;;;20797017;28;20205;-69
2022/05/26 01:23:18;;;;;;;0.27;0.20;;;;;;;;;;20814925;28;20217;-69
2022/05/26 01:33:26;;;;;;;0.30;0.20;;;;;;;;;;20894897;28;20216;-69
2022/05/26 01:43:51;;;;;;;0.27;0.20;;;19.40;94.40;;;;;;20817531;28;20219;-69
2022/05/26 01:53:54;;;;;;;0.77;0.20;;;;;;;;;;20787607;28;20219;-69
2022/05/26 02:03:58;;;;;;;0.37;0.20;;;19.40;99.10;;;;;;20804035;28;20224;-69
2022/05/26 02:14:08;;;;;;;1.03;0.30;;;;;;;;;;20843503;28;20208;-68
2022/05/26 02:24:14;;;;;;;0.40;0.30;;;;;;;;;;20874591;28;20579;-69
2022/05/26 02:34:19;;;;;;;0.47;0.23;;;19.20;99.90;;;;;;20800809;28;20213;-69
2022/05/26 02:44:21;;;;;;;1.63;0.30;;;;;;;;;;20771105;28;20222;-70
2022/05/26 02:54:23;;;;;;;0.30;0.30;;;;;;;;;;20790257;28;20283;-69
2022/05/26 03:04:25;;;;;;;0.43;0.30;;;;;;;;;;20788687;28;20231;-69
2022/05/26 03:14:26;;;;;;;1.03;0.30;;;16.60;99.90;;;;;;20772056;28;20277;-69
2022/05/26 03:24:28;;;;;;;0.10;0.10;;;;;;;;;;20788362;28;20582;-69
2022/05/26 03:44:50;;;;;;;0.30;0.30;;;;;;;;;;20790424;28;20231;-69
2022/05/26 03:54:52;;;;;;;0.20;0.20;;;;;;;;;;20786999;28;20208;-69
2022/05/26 04:04:54;;;;;;;1.93;0.40;;;;;;;;;;20786400;28;20277;-70
2022/05/26 04:14:56;;;;;;;0.53;0.30;;;;;;;;;;20801524;28;20228;-69
2022/05/26 04:24:59;;;;;;;0.87;0.30;;;;;;;;;;20789374;28;20222;-69
2022/05/26 04:35:02;;;;;;;0.67;0.30;;;;;;;;;;20779455;28;20215;-70
2022/05/26 04:45:06;;;;;;;2.63;0.43;;;18.50;99.90;;;;;;20793310;28;20222;-70
2022/05/26 04:55:08;;;;;;;0.70;0.30;;;18.60;99.90;;;;;;20799376;28;20226;-70
2022/05/26 05:05:11;;;;;;;0.70;0.37;;;18.60;99.90;;;;;;20794647;28;20226;-70
2022/05/26 05:15:19;;;;;;;0.20;0.20;;;18.70;99.90;;;;;;20808352;28;20567;-67
2022/05/26 05:25:23;;;;;;;1.17;0.30;;;;;;;;;;20797778;28;20215;-68
2022/05/26 05:35:29;;;;;;;1.00;0.40;;;;;;;;;;20841030;28;20763;-67
2022/05/26 05:45:31;;;;;;;0.50;0.30;;;;;;;;;;20832388;28;20273;-67
2022/05/26 05:55:33;;;;;;;0.50;0.30;;;;;;;;;;20788863;28;20724;-69
2022/05/26 06:05:35;;;;;;;2.73;0.30;;;19.10;99.90;;;;;;20793745;28;20275;-69
2022/05/26 06:15:40;;;;;;;0.60;0.40;;;;;;;;;;20809366;28;20246;-69
2022/05/26 06:25:42;;;;;;;0.27;0.23;;;;;;;;;;20808668;28;20849;-68
2022/05/26 06:46:10;;;;;;;1.83;0.33;;;;;;;;;;20791411;28;20227;-69
2022/05/26 06:56:12;;;;;;;0.30;0.30;;;;;;;;;;20806462;28;20667;-69
2022/05/26 07:06:20;;;;;;;2.83;0.30;;;19.20;99.90;;;;;;20804574;28;20297;-69
2022/05/26 07:16:23;;;;;;;0.93;0.40;;;;;;;;;;20779498;28;20238;-71
2022/05/26 07:26:25;;;;;;;0.40;0.30;;;;;;;;;;20792745;28;20278;-71
2022/05/26 07:46:47;;;;;;;0.40;0.20;;;;;;;;;;20811525;28;20236;-71
2022/05/26 07:56:50;;;;;;;0.63;0.40;;;20.10;99.90;;;;;;20808529;28;20250;-71
2022/05/26 08:06:52;;;;;;;0.77;0.20;;;;;;;;;;20764611;28;20611;-70
2022/05/26 08:16:54;;;;;;;2.63;0.40;;;;;;;;;;20785048;28;20221;-69
2022/05/26 08:26:56;;;;;;;0.70;0.30;;;;;;;;;;20807057;28;20705;-69
2022/05/26 08:36:58;;;;;;;0.20;0.20;;;;;;;;;;20802315;22;20234;-71
2022/05/26 08:47:14;;;;;;;1.07;0.40;;;20.10;99.90;;;;;;20674999;28;20290;-71
2022/05/26 08:57:19;;;;;;;0.73;0.40;;;;;;;;;;20687202;28;20565;-71
2022/05/26 09:17:45;;;;;;;0.60;0.40;;;;;;;;;;20679315;28;20272;-69
2022/05/26 09:27:53;;;;;;;0.87;0.30;;;;;;;;;;20671676;28;20254;-71
2022/05/26 09:38:02;;;;;;;0.93;0.40;;;;;;;;;;20680146;28;20579;-71
2022/05/26 09:48:13;;;;;;;2.07;0.50;;;;;;;;;;20682526;28;20217;-72
2022/05/26 09:58:28;;;;;;;2.17;0.40;;;;;;;;;;20650141;28;20215;-73
2022/05/26 10:08:33;;;;;;;0.30;0.30;;;;;;;;;;20652610;28;20235;-72
2022/05/26 10:18:50;;;;;;;0.43;0.30;;;;;;;;;;20664706;28;20214;-73
2022/05/26 10:29:10;;;;;;;0.50;0.30;;;;;;;;;;20661192;28;20285;-72
2022/05/26 10:39:15;;;;;;;1.60;0.20;;;;;;;;;;20619021;28;20258;-73
2022/05/26 10:49:24;;;;;;;0.30;0.30;;;;;;;;;;20652791;28;20235;-75
2022/05/26 10:59:41;;;;;;;0.40;0.40;;;21.00;99.90;;;;;;20656938;28;20987;-75
2022/05/26 11:09:47;;;;;;;0.27;0.27;;;;;;;;;;20676885;28;20227;-75
2022/05/26 11:20:07;;;;;;;0.63;0.30;;;;;;;;;;20648969;28;20293;-77
2022/05/26 11:36:07;;;;;;;0.30;0.30;;;;;;;;;;20642843;28;20230;-75
2022/05/26 11:40:42;;;;;;;0.50;0.40;;;;;;;;;;20635546;28;20647;-77
2022/05/26 11:50:47;;;;;;;1.20;0.30;;;;;;;;;;20630462;28;20218;-76
2022/05/26 12:00:50;;;;;;;1.97;0.40;;;;;;;;;;20681202;28;20674;-75
2022/05/26 12:10:53;;;;;;;1.20;0.30;;;;;;;;;;20658427;28;20707;-76
2022/05/26 12:21:10;;;;;;;0.90;0.43;;;;;;;;;;20664198;28;20317;-76
2022/05/26 12:31:12;;;;;;;0.77;0.20;;;;;;;;;;20670104;28;20227;-76
2022/05/26 12:41:14;;;;;;;0.40;0.30;;;;;;;;;;20667944;28;20699;-76
2022/05/26 12:51:15;;;;;;;0.40;0.20;;;;;;;;;;20666282;28;20277;-75
2022/05/26 13:01:20;;;;;;;1.70;0.40;;;;;;;;;;20646786;28;20205;-75
2022/05/26 13:11:25;;;;;;;0.82;0.30;;;;;;;;;;20675231;28;20208;-75
2022/05/26 13:21:30;;;;;;;0.38;0.30;;;23.00;96.00;;;;;;20696850;28;20248;-74
2022/05/26 13:41:53;;;;;;;0.80;0.30;;;;;;;;;;20624095;28;20278;-75
2022/05/26 13:51:56;;;;;;;0.73;0.47;;;;;;;;;;20659473;28;20247;-76
2022/05/26 14:02:16;;;;;;;0.80;0.35;;;24.30;91.90;;;;;;20632428;28;20615;-76
2022/05/26 14:12:28;;;;;;;0.50;0.32;;;24.00;91.80;;;;;;20662107;28;20614;-75
2022/05/26 14:22:32;;;;;;;0.52;0.30;;;23.70;92.60;;;;;;20661154;28;20213;-75
2022/05/26 14:32:35;;;;;;;5.78;0.40;;;;;;;;;;20650013;28;20226;-76
2022/05/26 14:42:39;;;;;;;2.67;0.50;;;;;;;;;;20736585;22;20228;-72
2022/05/26 14:52:42;;;;;;;1.42;0.50;;;;;;;;;;20808908;28;20229;-71
2022/05/26 15:02:45;;;;;;;1.98;0.50;;;;;;;;;;20795257;28;20235;-72
2022/05/26 15:12:47;;;;;;;1.40;0.43;;;;;;;;;;20786934;28;20218;-72
2022/05/26 15:22:49;;;;;;;1.10;0.43;;;;;;;;;;20797402;28;20218;-72
2022/05/26 15:33:18;;;;;;;1.15;0.43;;;;;;;;;;20784756;28;20226;-72
2022/05/26 15:43:20;;;;;;;1.65;0.52;;;;;;;;;;20816278;28;20695;-72
2022/05/26 15:53:22;;;;;;;1.10;0.30;;;;;;;;;;20818838;28;20282;-72
2022/05/26 16:03:25;;;;;;;0.63;0.40;;;;;;;;;;20800432;28;20222;-72
2022/05/26 16:13:26;;;;;;;1.25;0.40;;;;;;;;;;20794076;28;20558;-72
2022/05/26 16:23:28;;;;;;;1.55;0.43;;;;;;;;;;20808628;28;20213;-71
2022/05/26 16:33:30;;;;;;;1.42;0.40;;;;;;;;;;20810702;28;20278;-71
2022/05/26 16:43:32;;;;;;;0.90;0.30;;;;;;;;;;20809073;28;20223;-70
2022/05/26 16:53:36;;;;;;;0.40;0.30;;;24.60;83.50;;;;;;20839533;28;20223;-71
2022/05/26 17:03:38;;;;;;;0.77;0.50;;;;;;;;;;20810101;28;20220;-71
2022/05/26 17:24:13;;;;;;;1.60;0.40;;;23.70;92.60;;;;;;20804374;28;20272;-71
2022/05/26 17:34:15;;;;;;;0.80;0.40;;;;;;;;;;20818613;28;20282;-71
2022/05/26 17:44:20;;;;;;;0.45;0.20;;;23.30;93.90;;;;;;20811505;28;20318;-71
2022/05/26 17:54:24;;;;;;;1.30;0.50;;;23.20;93.80;;;;;;20806705;28;20766;-74
2022/05/26 18:04:51;;;;;;;0.77;0.40;;;;;;;;;;20808430;28;20623;-71
2022/05/26 18:14:53;;;;;;;2.50;0.40;;;;;;;;;;20810092;28;20249;-70
2022/05/26 18:24:55;;;;;;;1.73;0.50;;;;;;;;;;20813157;28;20277;-70
2022/05/26 18:35:01;;;;;;;1.75;0.60;;;22.90;96.80;;;;;;20804254;28;20202;-71
2022/05/26 18:45:07;;;;;;;0.60;0.30;;;;;;;;;;20809503;28;20247;-70
2022/05/26 18:55:10;;;;;;;2.63;0.50;;;;;;;;;;20795085;28;20527;-71
2022/05/26 19:05:35;;;;;;;0.70;0.40;;;;;;;;;;20807581;28;20222;-71
2022/05/26 19:15:38;;;;;;;1.08;0.30;;;;;;;;;;20808691;28;20221;-71
2022/05/26 19:25:47;;;;;;;1.42;0.60;;;;;;;;;;20790322;28;20307;-70
2022/05/26 19:35:50;;;;;;;0.70;0.43;;;;;;;;;;20813233;28;20274;-71
2022/05/26 19:45:54;;;;;;;2.33;0.60;;;;;;;;;;20800658;28;20264;-71
2022/05/26 19:55:56;;;;;;;0.80;0.60;;;;;;;;;;20819519;28;20230;-71
2022/05/26 20:05:59;;;;;;;0.77;0.40;;;;;;;;;;20803651;28;20764;-71
2022/05/26 20:16:01;;;;;;;0.70;0.40;;;;;;;;;;20806621;28;20243;-70
2022/05/26 20:26:20;;;;;;;0.80;0.40;;;21.80;99.40;;;;;;20801220;28;20224;-71
2022/05/26 20:36:22;;;;;;;0.95;0.40;;;21.80;99.90;;;;;;20815362;28;20579;-70
2022/05/26 20:46:24;;;;;;;0.52;0.30;;;;;;;;;;20818332;28;20222;-70
2022/05/26 20:56:30;;;;;;;0.93;0.23;;;21.60;99.90;;;;;;20813117;28;20199;-70
2022/05/26 21:06:32;;;;;;;1.37;0.50;;;;;;;;;;20820593;28;20302;-72
2022/05/26 21:16:33;;;;;;;1.33;0.47;;;21.40;97.30;;;;;;20893547;28;20276;-72
2022/05/26 21:26:35;;;;;;;0.93;0.40;;;21.30;99.90;;;;;;20909784;28;20688;-71
2022/05/26 21:36:38;;;;;;;1.67;0.40;;;;;;;;;;20909941;28;20221;-71
2022/05/26 21:46:40;;;;;;;0.30;0.23;;;;;;;;;;20888024;28;20270;-70
2022/05/26 21:56:44;;;;;;;1.87;0.40;;;21.10;99.90;;;;;;20826962;28;20579;-70
2022/05/26 22:17:07;;;;;;;1.13;0.50;;;;;;;;;;20823466;28;20272;-70
2022/05/26 22:27:10;;;;;;;1.77;0.50;;;;;;;;;;20807477;28;20230;-71
2022/05/26 22:37:12;;;;;;;0.57;0.37;;;;;;;;;;20823321;28;20202;-70
2022/05/26 22:47:14;;;;;;;0.57;0.33;;;;;;;;;;20823337;28;20296;-70
2022/05/26 22:57:18;;;;;;;1.33;0.50;;;;;;;;;;20821669;28;20205;-70
2022/05/26 23:07:19;;;;;;;0.73;0.40;;;;;;;;;;20820836;28;20684;-70
2022/05/26 23:17:21;;;;;;;0.70;0.40;;;;;;;;;;20820143;28;20232;-70
2022/05/26 23:27:23;;;;;;;1.23;0.43;;;;;;;;;;20821468;28;20259;-71
2022/05/26 23:37:24;;;;;;;1.00;0.40;;;;;;;;;;20818963;28;20227;-70
2022/05/26 23:47:26;;;;;;;0.43;0.43;;;;;;;;;;20822767;28;20255;-70
2022/05/26 23:57:49;;;;;;;1.57;0.70;;;;;;;;;;20835864;28;20577;-70
